Time;durP1;ratioP1;P1;durP2;ratioP2;P2;SDS_P1;SDS_P2;PMS_P1;PMS_P2;Temp;Humidity;BMP_temperature;BMP_pressure;BME280_temperature;BME280_humidity;BME280_pressure;Samples;Min_cycle;Max_cycle;Signal;HPM_P1;HPM_P2
2022/03/16 00:00:51;;;;;;;101.93;53.73;;;;;;;0.55;47.64;101663.45;123499;1099;104254;-79
2022/03/16 00:03:23;;;;;;;102.17;55.53;;;;;;;0.50;48.01;101662.12;123425;1098;104294;-79
2022/03/16 00:05:55;;;;;;;102.87;56.07;;;;;;;0.49;48.68;101665.45;123729;1102;104242;-79
2022/03/16 00:08:29;;;;;;;98.40;50.50;;;;;;;0.43;48.68;101651.95;123823;1099;104721;-79
2022/03/16 00:11:03;;;;;;;101.30;52.13;;;;;;;0.36;48.26;101660.80;123504;1099;104351;-79
2022/03/16 00:13:36;;;;;;;103.33;55.57;;;;;;;0.29;48.26;101659.29;123507;1099;104274;-80
2022/03/16 00:16:08;;;;;;;110.53;56.03;;;;;;;0.24;48.48;101657.05;123630;1099;104239;-80
2022/03/16 00:18:39;;;;;;;101.00;52.60;;;;;;;0.24;48.38;101650.20;123374;1102;104323;-79
2022/03/16 00:21:12;;;;;;;100.50;52.10;;;;;;;0.25;48.55;101651.11;123601;1102;104476;-80
2022/03/16 00:23:44;;;;;;;97.33;53.63;;;;;;;0.23;49.01;101648.38;124005;1099;104255;-80
2022/03/16 00:26:16;;;;;;;102.43;53.83;;;;;;;0.18;49.25;101654.78;123841;1099;104216;-79
2022/03/16 00:28:48;;;;;;;97.80;53.43;;;;;;;0.14;48.74;101656.17;123750;1100;104290;-79
2022/03/16 00:31:20;;;;;;;95.60;50.93;;;;;;;0.10;49.66;101658.31;123775;1102;104237;-80
2022/03/16 00:33:52;;;;;;;97.57;52.57;;;;;;;0.06;50.08;101659.66;123910;1102;104348;-80
2022/03/16 00:36:25;;;;;;;101.90;50.50;;;;;;;-0.05;50.78;101658.66;123824;1099;104293;-80
2022/03/16 00:38:56;;;;;;;100.83;54.37;;;;;;;-0.09;51.79;101656.54;123924;1099;104268;-80
2022/03/16 00:41:29;;;;;;;101.43;55.23;;;;;;;-0.10;50.72;101654.70;123793;1102;104354;-80
2022/03/16 00:44:02;;;;;;;104.53;53.63;;;;;;;-0.10;50.43;101656.39;123997;1100;104344;-80
2022/03/16 00:46:36;;;;;;;104.50;53.80;;;;;;;-0.10;50.25;101641.80;123907;1102;104808;-80
2022/03/16 00:49:07;;;;;;;;;;;;;;;-0.10;50.57;101646.97;123660;1099;104424;-80
2022/03/16 00:51:40;;;;;;;105.90;51.90;;;;;;;-0.04;49.70;101644.08;123719;1100;104277;-80
2022/03/16 00:54:13;;;;;;;100.53;54.33;;;;;;;0.01;49.87;101645.42;123410;1102;104367;-79
2022/03/16 00:56:45;;;;;;;97.33;51.10;;;;;;;0.05;49.29;101634.64;123647;1099;104229;-80
2022/03/16 00:59:18;;;;;;;98.53;50.83;;;;;;;0.07;49.84;101627.95;123869;1102;104373;-80
2022/03/16 01:01:50;;;;;;;103.50;53.03;;;;;;;0.09;49.48;101633.25;123886;1102;104255;-80
2022/03/16 01:04:22;;;;;;;100.00;53.37;;;;;;;0.13;49.85;101630.22;123957;1099;105511;-80
2022/03/16 01:06:55;;;;;;;105.95;53.35;;;;;;;0.16;49.42;101630.51;123849;1102;104310;-80
2022/03/16 01:09:26;;;;;;;101.43;51.97;;;;;;;0.17;50.21;101622.91;124349;1099;104342;-80
2022/03/16 01:12:02;;;;;;;95.40;50.90;;;;;;;0.16;50.28;101626.24;124150;1099;104428;-79
2022/03/16 01:14:35;;;;;;;102.23;53.27;;;;;;;0.16;49.58;101628.83;123737;1100;104335;-80
2022/03/16 01:17:08;;;;;;;96.80;53.10;;;;;;;0.17;50.13;101614.23;123816;1102;104364;-80
2022/03/16 01:19:40;;;;;;;97.82;52.90;;;;;;;0.19;50.01;101612.73;123713;1102;104415;-80
2022/03/16 01:22:14;;;;;;;101.57;53.07;;;;;;;0.21;50.25;101624.10;123826;1102;104421;-79
2022/03/16 01:24:46;;;;;;;102.80;53.13;;;;;;;0.22;50.12;101620.77;123868;1102;104367;-80
2022/03/16 01:27:19;;;;;;;96.50;53.33;;;;;;;0.22;50.08;101618.19;123499;1102;104370;-79
2022/03/16 01:29:51;;;;;;;102.53;52.73;;;;;;;0.22;49.92;101613.02;123750;1102;104682;-80
2022/03/16 01:32:23;;;;;;;104.60;51.90;;;;;;;0.21;49.80;101607.71;123870;1102;104374;-80
2022/03/16 01:34:55;;;;;;;;;;;;;;;0.22;50.24;101619.84;123648;1102;105348;-79
2022/03/16 01:37:27;;;;;;;98.90;50.90;;;;;;;0.21;50.27;101608.61;123477;1102;104405;-80
2022/03/16 01:39:58;;;;;;;99.90;51.80;;;;;;;0.24;50.11;101608.91;123796;1102;104325;-80
2022/03/16 01:42:31;;;;;;;102.17;54.07;;;;;;;0.24;50.59;101619.23;123723;1102;104830;-79
2022/03/16 01:45:04;;;;;;;104.20;54.87;;;;;;;0.25;50.22;101615.89;123462;1103;104351;-80
2022/03/16 01:47:36;;;;;;;97.43;53.03;;;;;;;0.25;50.80;101618.48;123510;1102;104329;-79
2022/03/16 01:50:10;;;;;;;99.47;52.40;;;;;;;0.23;50.83;101612.23;123512;1102;104415;-80
2022/03/16 01:52:42;;;;;;;94.05;53.60;;;;;;;0.24;50.36;101608.91;123778;1099;104698;-80
2022/03/16 01:55:15;;;;;;;101.77;53.90;;;;;;;0.25;50.85;101613.31;123765;1099;104242;-79
2022/03/16 01:57:49;;;;;;;96.63;52.17;;;;;;;0.25;50.38;101609.80;123854;1102;104838;-80
2022/03/16 02:00:23;;;;;;;101.72;54.25;;;;;;;0.25;50.39;101610.73;123353;1100;104341;-79
2022/03/16 02:02:56;;;;;;;97.67;52.77;;;;;;;0.24;50.66;101614.06;123696;1100;104385;-80
2022/03/16 02:05:30;;;;;;;104.13;54.30;;;;;;;0.22;50.78;101609.51;123543;1099;104460;-80
2022/03/16 02:08:04;;;;;;;100.97;52.23;;;;;;;0.16;51.20;101605.59;123761;1102;104255;-79
2022/03/16 02:10:37;;;;;;;100.80;53.03;;;;;;;0.15;51.06;101600.28;123851;1100;104284;-80
2022/03/16 02:13:11;;;;;;;107.77;54.43;;;;;;;0.13;50.83;101604.41;123670;1101;104357;-80
2022/03/16 02:15:42;;;;;;;104.57;55.47;;;;;;;0.11;50.92;101603.33;124238;1099;104248;-80
2022/03/16 02:18:15;;;;;;;97.87;54.97;;;;;;;0.09;51.23;101607.44;123700;1102;104299;-79
2022/03/16 02:20:51;;;;;;;103.10;54.20;;;;;;;0.07;50.65;101602.14;123727;1100;104242;-80
2022/03/16 02:23:23;;;;;;;102.13;56.00;;;;;;;0.03;51.53;101605.17;123725;1099;104271;-80
2022/03/16 02:25:55;;;;;;;107.13;56.87;;;;;;;-0.01;50.41;101601.41;123739;1099;104226;-80
2022/03/16 02:28:27;;;;;;;98.83;54.00;;;;;;;-0.03;50.68;101602.94;123702;1099;104619;-79
2022/03/16 02:31:00;;;;;;;108.80;56.17;;;;;;;-0.03;51.12;101597.78;123577;1099;104377;-80
2022/03/16 02:33:31;;;;;;;108.63;56.37;;;;;;;-0.05;51.05;101593.22;123641;1102;104329;-80
2022/03/16 02:36:03;;;;;;;105.37;55.23;;;;;;;-0.09;51.59;101589.45;123730;1099;104168;-80
2022/03/16 02:38:38;;;;;;;100.53;56.10;;;;;;;-0.10;51.05;101591.88;123761;1099;104245;-78
2022/03/16 02:41:10;;;;;;;107.43;55.50;;;;;;;-0.13;51.55;101597.64;123686;1099;104434;-79
2022/03/16 02:43:43;;;;;;;110.23;57.20;;;;;;;-0.16;51.50;101596.45;123731;1102;104322;-80
2022/03/16 02:46:15;;;;;;;107.85;57.10;;;;;;;-0.15;51.70;101599.18;123813;1099;104613;-78
2022/03/16 02:48:46;;;;;;;106.53;59.00;;;;;;;-0.16;51.15;101591.30;123657;1102;104318;-80
2022/03/16 02:51:19;;;;;;;108.30;57.55;;;;;;;-0.15;51.14;101593.13;123786;1099;104220;-80
2022/03/16 02:53:52;;;;;;;105.30;55.60;;;;;;;-0.17;51.30;101592.05;123969;1099;104616;-80
2022/03/16 02:56:27;;;;;;;101.20;55.17;;;;;;;-0.19;51.13;101595.41;123638;1102;104948;-80
2022/03/16 02:58:59;;;;;;;103.55;55.20;;;;;;;-0.20;51.57;101584.94;124263;1099;104383;-80
2022/03/16 03:01:30;;;;;;;106.20;56.07;;;;;;;-0.21;51.65;101593.44;124237;1099;104239;-79
2022/03/16 03:04:02;;;;;;;98.17;54.00;;;;;;;-0.21;52.03;101585.69;123952;1101;104294;-80
2022/03/16 03:06:34;;;;;;;103.13;56.83;;;;;;;-0.21;52.11;101585.69;124145;1099;104238;-80
2022/03/16 03:09:07;;;;;;;109.67;57.03;;;;;;;-0.21;51.26;101593.44;123757;1099;104687;-80
2022/03/16 03:11:40;;;;;;;109.43;55.00;;;;;;;-0.23;51.75;101589.81;123739;1099;104380;-79
2022/03/16 03:14:12;;;;;;;107.17;56.30;;;;;;;-0.25;52.20;101588.73;123408;1099;104220;-79
2022/03/16 03:16:43;;;;;;;106.37;56.13;;;;;;;-0.30;51.28;101588.28;123761;1099;104269;-80
2022/03/16 03:19:18;;;;;;;105.37;55.70;;;;;;;-0.30;52.26;101589.97;123767;1099;104363;-79
2022/03/16 03:21:49;;;;;;;105.77;56.03;;;;;;;-0.34;52.20;101588.77;123813;1099;104713;-79
2022/03/16 03:24:21;;;;;;;105.43;56.80;;;;;;;-0.36;52.57;101595.43;123577;1099;104258;-80
2022/03/16 03:26:54;;;;;;;103.10;53.70;;;;;;;-0.37;52.88;101594.53;123820;1099;104350;-80
2022/03/16 03:29:26;;;;;;;101.97;54.17;;;;;;;-0.40;52.24;101593.34;123770;1099;104242;-80
2022/03/16 03:31:58;;;;;;;100.00;52.47;;;;;;;-0.42;52.32;101595.77;123832;1099;104271;-80
2022/03/16 03:34:30;;;;;;;108.07;54.67;;;;;;;-0.46;52.59;101593.64;123850;1100;104239;-80
2022/03/16 03:37:02;;;;;;;98.63;53.63;;;;;;;-0.49;51.82;101593.34;123785;1099;104271;-80
2022/03/16 03:39:34;;;;;;;115.20;57.30;;;;;;;-0.49;52.30;101595.02;123815;1099;104358;-80
2022/03/16 03:42:08;;;;;;;105.50;56.03;;;;;;;-0.48;51.86;101589.08;123544;1099;104252;-80
2022/03/16 03:44:40;;;;;;;106.27;54.73;;;;;;;-0.49;52.93;101587.28;123827;1099;104344;-80
2022/03/16 03:47:12;;;;;;;105.73;55.83;;;;;;;-0.51;53.10;101592.30;123776;1099;104341;-80
2022/03/16 03:49:44;;;;;;;99.87;55.17;;;;;;;-0.52;52.48;101589.56;124055;1099;104297;-79
2022/03/16 03:52:16;;;;;;;99.53;53.67;;;;;;;-0.53;52.54;101592.89;123866;1099;104300;-79
2022/03/16 03:54:48;;;;;;;99.73;53.70;;;;;;;-0.53;52.58;101596.40;123838;1099;104268;-79
2022/03/16 03:57:20;;;;;;;99.40;53.77;;;;;;;-0.53;52.92;101595.47;124338;1099;104194;-80
2022/03/16 03:59:52;;;;;;;95.27;51.20;;;;;;;-0.57;53.09;101599.42;123764;1099;107970;-80
2022/03/16 04:02:24;;;;;;;102.20;51.53;;;;;;;-0.60;53.07;101597.45;123731;1099;104241;-79
2022/03/16 04:04:56;;;;;;;101.43;51.13;;;;;;;-0.61;52.22;101605.03;123560;1099;104342;-79
2022/03/16 04:07:27;;;;;;;95.65;48.45;;;;;;;-0.60;53.35;101607.77;123859;1099;104386;-80
2022/03/16 04:10:00;;;;;;;99.63;49.03;;;;;;;-0.59;52.71;101612.17;123901;1099;104259;-80
2022/03/16 04:12:32;;;;;;;112.20;51.73;;;;;;;-0.58;52.29;101613.06;123935;1102;104261;-80
2022/03/16 04:15:03;;;;;;;125.20;54.77;;;;;;;-0.58;53.36;101610.48;124363;1099;104399;-80
2022/03/16 04:17:35;;;;;;;125.00;50.50;;;;;;;-0.56;53.62;101611.57;124293;1099;104207;-81
2022/03/16 04:20:09;;;;;;;104.63;49.77;;;;;;;-0.54;52.59;101607.46;123902;1099;104204;-80
2022/03/16 04:22:39;;;;;;;;;;;;;;;-0.55;53.24;101606.56;124003;1099;104297;-80
2022/03/16 04:25:12;;;;;;;105.03;46.40;;;;;;;-0.55;52.72;101605.63;123808;1102;104300;-81
2022/03/16 04:27:44;;;;;;;98.30;47.20;;;;;;;-0.54;53.08;101597.15;123763;1102;104261;-81
2022/03/16 04:30:17;;;;;;;101.90;46.73;;;;;;;-0.51;54.00;101601.67;124283;1099;105037;-80
2022/03/16 04:32:51;;;;;;;98.53;44.00;;;;;;;-0.48;53.54;101600.33;123939;1099;104242;-81
2022/03/16 04:35:23;;;;;;;90.50;43.20;;;;;;;-0.45;53.29;101599.69;124323;1098;104319;-81
2022/03/16 04:37:55;;;;;;;82.37;39.97;;;;;;;-0.41;54.13;101605.30;124332;1099;104268;-81
2022/03/16 04:40:27;;;;;;;70.70;36.70;;;;;;;-0.38;54.33;101592.70;123882;1099;104197;-81
2022/03/16 04:42:59;;;;;;;81.63;39.70;;;;;;;-0.33;54.54;101594.83;123864;1102;104270;-81
2022/03/16 04:45:30;;;;;;;72.93;35.90;;;;;;;-0.30;54.55;101597.70;123907;1099;104616;-80
2022/03/16 04:48:02;;;;;;;61.63;28.53;;;;;;;-0.29;56.12;101586.64;123832;1099;104970;-80
2022/03/16 04:50:34;;;;;;;63.27;29.13;;;;;;;-0.25;54.45;101586.15;124111;1099;104223;-80
2022/03/16 04:53:08;;;;;;;63.23;27.03;;;;;;;-0.22;54.90;101589.95;124365;1099;104301;-80
2022/03/16 04:55:40;;;;;;;50.87;24.67;;;;;;;-0.16;55.08;101583.55;123889;1099;104248;-80
2022/03/16 04:58:14;;;;;;;46.43;23.73;;;;;;;-0.13;56.54;101589.91;124239;1099;104370;-80
2022/03/16 05:00:44;;;;;;;;;;;;;;;-0.10;58.60;101589.30;123985;1099;104219;-80
2022/03/16 05:03:17;;;;;;;45.93;21.40;;;;;;;-0.08;55.54;101593.86;123687;1102;104338;-80
2022/03/16 05:05:49;;;;;;;47.10;21.30;;;;;;;-0.04;56.20;101597.63;123794;1102;104341;-81
2022/03/16 05:08:21;;;;;;;47.20;21.77;;;;;;;-0.02;56.77;101609.93;123937;1099;104267;-81
2022/03/16 05:10:54;;;;;;;40.57;19.30;;;;;;;0.03;56.08;101612.92;123918;1102;104431;-81
2022/03/16 05:13:26;;;;;;;40.87;20.37;;;;;;;0.09;57.47;101615.19;124043;1102;104355;-83
2022/03/16 05:16:00;;;;;;;37.90;19.17;;;;;;;0.13;56.09;101622.47;123747;1102;104416;-83
2022/03/16 05:18:34;;;;;;;36.28;17.10;;;;;;;0.17;56.69;101633.23;123544;1099;104328;-83
2022/03/16 05:21:08;;;;;;;;;;;;;;;0.22;58.37;101635.33;123588;1099;104351;-83
2022/03/16 05:23:42;;;;;;;39.93;18.37;;;;;;;0.27;56.57;101647.02;123423;1099;104168;-83
2022/03/16 05:26:15;;;;;;;37.67;18.00;;;;;;;0.31;57.05;101643.94;123455;1099;104326;-83
2022/03/16 05:28:48;;;;;;;37.80;17.73;;;;;;;0.39;57.07;101653.35;123419;1099;104289;-83
2022/03/16 05:31:23;;;;;;;39.70;16.95;;;;;;;0.50;56.61;101654.37;123396;1102;104491;-84
2022/03/16 05:33:56;;;;;;;36.80;16.50;;;;;;;0.58;56.32;101662.80;123669;1099;104261;-83
2022/03/16 05:36:30;;;;;;;35.10;16.52;;;;;;;0.65;56.42;101658.36;123449;1099;104325;-82
2022/03/16 05:39:03;;;;;;;33.67;16.43;;;;;;;0.71;57.36;101669.27;123454;1099;104348;-82
2022/03/16 05:41:37;;;;;;;33.33;15.48;;;;;;;0.75;58.28;101674.73;123335;1099;104351;-82
2022/03/16 05:44:10;;;;;;;30.20;14.30;;;;;;;0.78;57.62;101682.77;123529;1099;104527;-83
2022/03/16 05:46:43;;;;;;;29.77;15.07;;;;;;;0.81;56.78;101673.66;123472;1098;104392;-82
2022/03/16 05:49:17;;;;;;;33.17;15.43;;;;;;;0.89;56.86;101679.53;123455;1099;104360;-82
2022/03/16 05:51:52;;;;;;;31.90;14.33;;;;;;;0.95;57.31;101680.11;123411;1102;104733;-83
2022/03/16 05:54:25;;;;;;;36.83;15.43;;;;;;;1.02;56.77;101689.33;123522;1099;104335;-82
2022/03/16 05:56:57;;;;;;;33.00;15.53;;;;;;;1.06;57.48;101692.34;123396;1099;104293;-82
2022/03/16 05:59:30;;;;;;;26.13;12.67;;;;;;;1.14;58.46;101694.70;123429;1102;104271;-83
2022/03/16 06:02:02;;;;;;;28.83;14.57;;;;;;;1.15;59.50;101702.61;123403;1099;104328;-82
2022/03/16 06:04:36;;;;;;;33.83;15.00;;;;;;;1.19;57.11;101709.00;123477;1099;104546;-82
2022/03/16 06:07:08;;;;;;;26.90;12.30;;;;;;;1.26;58.84;101711.36;124096;1099;104475;-81
2022/03/16 06:09:41;;;;;;;29.90;14.20;;;;;;;1.30;58.29;101699.64;123650;1099;104331;-81
2022/03/16 06:12:15;;;;;;;26.15;12.90;;;;;;;1.38;58.07;101702.14;123473;1102;104351;-81
2022/03/16 06:14:47;;;;;;;34.65;14.80;;;;;;;1.49;58.43;101700.53;123970;1102;104220;-81
2022/03/16 06:17:19;;;;;;;32.97;13.87;;;;;;;1.59;59.77;101703.20;123909;1102;104591;-80
2022/03/16 06:19:52;;;;;;;30.43;13.70;;;;;;;1.70;58.52;101698.08;123847;1102;104357;-81
2022/03/16 06:22:26;;;;;;;27.57;13.33;;;;;;;1.86;59.15;101690.94;124158;1101;104434;-81
2022/03/16 06:25:00;;;;;;;33.87;14.23;;;;;;;2.06;58.92;101694.41;123996;1102;104187;-80
2022/03/16 06:27:31;;;;;;;30.75;13.40;;;;;;;2.24;58.20;101674.39;124543;1102;104393;-79
2022/03/16 06:30:13;;;;;;;28.25;13.10;;;;;;;2.39;59.05;101655.01;123702;1102;104498;-80
2022/03/16 06:32:50;;;;;;;31.80;13.70;;;;;;;2.47;58.60;101634.95;124626;1102;108084;-80
2022/03/16 06:35:26;;;;;;;27.00;13.62;;;;;;;2.42;59.69;101631.95;124193;1102;102849;-81
2022/03/16 06:38:05;;;;;;;30.17;13.73;;;;;;;2.35;59.39;101647.73;124280;1101;104474;-81
2022/03/16 06:40:42;;;;;;;31.77;14.47;;;;;;;2.33;59.98;101642.42;124399;1099;104437;-83
2022/03/16 06:43:18;;;;;;;27.25;12.65;;;;;;;2.33;60.48;101657.06;124280;1098;117842;-83
2022/03/16 06:48:50;;;;;;;29.43;13.90;;;;;;;2.31;59.96;101671.58;123743;1099;104383;-81
2022/03/16 06:51:31;;;;;;;33.03;15.27;;;;;;;2.36;59.56;101684.92;124072;1099;104226;-80
2022/03/16 06:54:06;;;;;;;30.90;14.30;;;;;;;2.53;59.91;101681.22;123904;1099;104341;-82
2022/03/16 06:56:47;;;;;;;33.10;14.87;;;;;;;2.61;60.07;101677.59;124851;1099;104176;-80
2022/03/16 06:59:25;;;;;;;27.67;13.80;;;;;;;2.65;60.32;101669.30;124274;1100;104274;-82
2022/03/16 07:02:00;;;;;;;27.07;13.17;;;;;;;2.71;60.34;101667.23;124620;1099;104289;-79
2022/03/16 07:04:38;;;;;;;28.60;13.63;;;;;;;2.81;59.89;101658.58;124181;1099;104373;-81
2022/03/16 07:07:15;;;;;;;33.77;14.90;;;;;;;2.88;60.59;101656.64;125097;1099;104165;-81
2022/03/16 07:12:37;;;;;;;32.43;15.43;;;;;;;3.14;60.16;101652.73;124949;1099;104262;-80
2022/03/16 07:15:17;;;;;;;32.50;14.43;;;;;;;3.18;60.13;101649.63;124590;1099;104345;-82
2022/03/16 07:17:58;;;;;;;25.67;13.10;;;;;;;3.30;60.13;101643.64;123808;1100;104371;-80
2022/03/16 07:20:45;;;;;;;34.30;14.73;;;;;;;3.33;59.77;101638.70;124617;1099;104227;-81
2022/03/16 07:23:23;;;;;;;32.57;14.63;;;;;;;3.45;59.33;101646.61;124742;1099;104355;-81
2022/03/16 07:26:21;;;;;;;31.57;15.03;;;;;;;3.63;58.89;101649.79;124871;1099;104393;-81
2022/03/16 07:32:52;;;;;;;31.40;14.80;;;;;;;3.72;59.21;101646.25;124638;1102;104373;-80
2022/03/16 07:35:27;;;;;;;30.55;14.60;;;;;;;3.72;59.20;101650.55;124394;1102;104498;-79
2022/03/16 07:38:17;;;;;;;31.17;14.10;;;;;;;3.81;59.30;101648.70;123853;1102;104565;-81
2022/03/16 07:41:08;;;;;;;29.00;14.40;;;;;;;3.85;59.09;101644.65;124093;1102;104363;-82
2022/03/16 07:43:48;;;;;;;31.37;13.57;;;;;;;3.92;59.46;101636.59;123962;1102;104408;-79
2022/03/16 07:46:57;;;;;;;33.73;13.70;;;;;;;3.92;59.27;101644.38;124029;1102;104465;-81
2022/03/16 07:49:47;;;;;;;30.90;13.00;;;;;;;3.99;59.09;101645.77;124186;1105;104322;-80
2022/03/16 07:52:50;;;;;;;30.60;14.37;;;;;;;4.00;58.85;101640.70;123519;1102;104578;-81
2022/03/16 07:55:49;;;;;;;;;;;;;;;;;;;;;
2022/03/16 07:58:38;;;;;;;27.60;13.17;;;;;;;4.30;58.96;101643.92;124383;1102;104315;-82
2022/03/16 08:01:45;;;;;;;27.93;13.53;;;;;;;4.48;59.14;101647.97;124532;1102;104185;-80
2022/03/16 08:04:27;;;;;;;27.37;12.10;;;;;;;4.53;58.41;101648.33;123445;1099;104438;-79
2022/03/16 08:07:29;;;;;;;;;;;;;;;;;;;;;
2022/03/16 08:10:32;;;;;;;28.40;12.97;;;;;;;4.58;58.76;101679.89;124543;1099;104370;-80
2022/03/16 08:13:43;;;;;;;30.20;12.60;;;;;;;4.65;58.18;101677.89;124523;1099;104303;-78
2022/03/16 08:17:01;;;;;;;27.70;11.97;;;;;;;4.88;58.66;101676.19;124108;1099;112625;-81
2022/03/16 08:19:51;;;;;;;24.35;12.10;;;;;;;5.04;57.14;101657.45;124068;1099;104265;-84
2022/03/16 08:22:36;;;;;;;26.57;12.17;;;;;;;5.21;57.95;101662.23;123579;1099;104251;-82
2022/03/16 08:25:42;;;;;;;27.20;11.87;;;;;;;5.38;57.49;101657.41;124669;1099;104736;-80
2022/03/16 08:28:21;;;;;;;28.43;11.37;;;;;;;5.43;56.35;101657.76;124100;1099;104265;-82
2022/03/16 08:31:01;;;;;;;26.60;10.73;;;;;;;5.47;57.21;101652.90;124043;1099;104201;-82
2022/03/16 08:33:41;;;;;;;26.07;11.07;;;;;;;5.60;57.17;101651.20;123889;1099;104379;-80
2022/03/16 08:36:39;;;;;;;;;;;;;;;;;;;;;
2022/03/16 08:43:46;;;;;;;24.73;12.00;;;;;;;5.82;56.66;101671.92;124328;1098;104271;-81
2022/03/16 08:46:33;;;;;;;30.30;12.70;;;;;;;5.85;56.55;101651.31;124144;1098;105538;-82
2022/03/16 08:49:15;;;;;;;26.17;11.90;;;;;;;6.04;56.09;101662.29;124244;1099;104338;-80
2022/03/16 08:52:14;;;;;;;25.87;12.53;;;;;;;6.03;55.14;101660.50;123779;1099;104226;-80
2022/03/16 08:55:00;;;;;;;25.07;11.57;;;;;;;5.94;55.84;101665.01;123525;1099;104492;-81
2022/03/16 08:57:36;;;;;;;27.00;12.70;;;;;;;5.92;55.80;101659.69;123811;1099;104373;-81
2022/03/16 09:00:32;;;;;;;26.13;12.90;;;;;;;6.02;55.60;101665.60;124298;1099;104265;-82
2022/03/16 09:03:27;;;;;;;26.83;12.73;;;;;;;6.16;55.79;101656.18;124483;1099;104245;-81
2022/03/16 09:06:57;;;;;;;;;;;;;;;;;;;;;
2022/03/16 09:09:42;;;;;;;23.53;11.83;;;;;;;6.20;55.37;101658.19;124036;1099;104482;-83
2022/03/16 09:15:11;;;;;;;27.00;12.23;;;;;;;6.22;54.66;101677.47;124242;1099;104736;-80
2022/03/16 09:18:08;;;;;;;25.17;12.00;;;;;;;6.23;54.59;101679.26;123902;1100;104466;-81
2022/03/16 09:20:42;;;;;;;27.87;12.37;;;;;;;6.26;55.08;101677.80;124503;1099;104357;-79
2022/03/16 09:23:36;;;;;;;26.40;12.53;;;;;;;6.32;55.28;101679.92;123506;1099;104316;-80
2022/03/16 09:26:17;;;;;;;31.07;12.23;;;;;;;6.35;55.00;101680.14;124559;1099;104277;-80
2022/03/16 09:32:01;;;;;;;23.80;11.37;;;;;;;6.43;54.70;101660.73;124538;1099;104268;-83
2022/03/16 09:34:40;;;;;;;25.90;9.93;;;;;;;6.47;54.43;101667.98;124638;1099;104172;-80
2022/03/16 09:37:53;;;;;;;24.63;11.33;;;;;;;6.48;54.70;101671.48;124723;1099;104313;-82
2022/03/16 09:40:56;;;;;;;26.17;11.33;;;;;;;6.55;55.10;101683.28;124293;1099;104242;-83
2022/03/16 09:44:06;;;;;;;26.27;11.90;;;;;;;6.59;54.38;101670.56;124380;1102;104374;-85
2022/03/16 09:47:23;;;;;;;;;;;;;;;;;;;;;
2022/03/16 09:50:35;;;;;;;;;;;;;;;;;;;;;
2022/03/16 09:56:45;;;;;;;;;;;;;;;6.65;53.77;101665.78;123754;1102;104584;-83
2022/03/16 09:59:33;;;;;;;25.25;11.75;;;;;;;6.68;54.07;101664.17;123919;1102;104341;-82
2022/03/16 10:02:55;;;;;;;24.37;11.37;;;;;;;6.76;53.45;101648.27;124107;1102;104277;-83
2022/03/16 10:05:53;;;;;;;27.93;11.30;;;;;;;6.80;53.48;101649.38;123879;1102;104309;-81
2022/03/16 10:19:04;;;;;;;22.50;10.60;;;;;;;6.91;52.57;101666.67;124724;1105;104524;-80
2022/03/16 10:22:25;;;;;;;24.10;10.27;;;;;;;6.94;52.29;101658.16;124747;1102;104508;-82
2022/03/16 10:28:40;;;;;;;21.03;10.20;;;;;;;6.83;51.72;101663.53;125348;1103;102025;-85
2022/03/16 10:31:57;;;;;;;;;;;;;;;;;;;;;
2022/03/16 10:35:35;;;;;;;24.63;9.63;;;;;;;6.86;51.54;101654.09;124396;1102;102506;-84
2022/03/16 10:49:26;;;;;;;;;;;;;;;;;;;;;
2022/03/16 10:55:29;;;;;;;20.37;8.67;;;;;;;7.14;50.57;101654.31;124976;1106;104252;-83
2022/03/16 10:58:34;;;;;;;20.70;8.80;;;;;;;7.10;50.66;101636.61;123905;1106;104338;-84
2022/03/16 11:01:30;;;;;;;19.70;8.70;;;;;;;7.15;51.07;101640.43;124064;1109;104226;-83
2022/03/16 11:04:47;;;;;;;;;;;;;;;;;;;;;
2022/03/16 11:08:04;;;;;;;17.93;7.50;;;;;;;7.06;49.04;101635.52;123389;1106;104607;-83
2022/03/16 11:10:42;;;;;;;21.00;9.70;;;;;;;7.14;50.58;101643.87;124004;1105;104502;-82
2022/03/16 11:13:36;;;;;;;22.07;9.30;;;;;;;7.14;49.58;101646.48;124930;1105;104284;-84
2022/03/16 11:16:34;;;;;;;20.23;8.97;;;;;;;7.13;50.13;101645.55;124573;1099;104197;-81
2022/03/16 11:19:09;;;;;;;23.80;9.43;;;;;;;7.18;50.29;101641.56;125503;1099;104229;-80
2022/03/16 11:21:47;;;;;;;23.20;9.40;;;;;;;7.20;49.73;101639.06;124286;1099;104336;-79
2022/03/16 11:24:42;;;;;;;20.93;8.30;;;;;;;7.25;49.50;101635.05;124558;1098;102814;-80
2022/03/16 11:27:40;;;;;;;19.57;8.90;;;;;;;7.16;49.14;101627.48;125445;1099;104390;-79
2022/03/16 11:30:29;;;;;;;22.07;9.43;;;;;;;7.10;49.34;101619.23;126014;1099;103085;-82
2022/03/16 11:33:50;;;;;;;21.00;8.60;;;;;;;7.06;48.54;101627.69;125664;1099;104249;-82
2022/03/16 11:37:12;;;;;;;20.13;9.43;;;;;;;7.13;48.84;101635.11;125637;1099;102783;-83
2022/03/16 11:43:45;;;;;;;;;;;;;;;;;;;;;
2022/03/16 11:47:01;;;;;;;21.43;8.97;;;;;;;7.27;49.21;101627.31;126413;1099;104211;-83
2022/03/16 11:50:14;;;;;;;22.93;9.67;;;;;;;7.20;49.08;101624.29;126163;1099;104264;-83
2022/03/16 11:53:24;;;;;;;22.32;9.53;;;;;;;7.24;49.35;101628.00;126046;1099;104176;-82
2022/03/16 12:00:03;;;;;;;20.67;8.97;;;;;;;7.28;49.23;101640.47;124638;1099;104364;-81
2022/03/16 12:03:10;;;;;;;21.90;8.53;;;;;;;7.27;49.15;101632.53;124624;1099;104255;-83
2022/03/16 12:09:33;;;;;;;20.30;8.83;;;;;;;7.28;49.19;101635.25;124862;1102;104364;-83
2022/03/16 12:16:23;;;;;;;21.70;8.87;;;;;;;7.10;48.20;101624.45;124383;1101;104354;-84
2022/03/16 12:20:16;;;;;;;;;;;;;;;;;;;;;
2022/03/16 12:23:06;;;;;;;20.20;8.60;;;;;;;7.07;47.57;101632.08;123851;1102;104344;-84
2022/03/16 12:29:46;;;;;;;23.43;8.93;;;;;;;7.13;48.08;101628.99;124328;1102;104400;-85
2022/03/16 12:32:42;;;;;;;;;;;;;;;;;;;;;
2022/03/16 12:35:44;;;;;;;20.07;8.13;;;;;;;7.00;47.40;101650.75;124326;1099;104310;-84
2022/03/16 12:38:31;;;;;;;18.82;7.92;;;;;;;7.01;48.02;101640.42;124595;1099;105006;-82
2022/03/16 12:44:27;;;;;;;22.13;7.40;;;;;;;6.87;46.94;101654.20;124868;1099;104173;-79
2022/03/16 12:47:16;;;;;;;23.17;8.00;;;;;;;6.93;47.02;101653.73;124038;1102;109152;-79
2022/03/16 12:49:54;;;;;;;16.83;7.13;;;;;;;6.87;46.22;101654.20;123992;1102;104223;-80
2022/03/16 12:53:08;;;;;;;16.37;7.07;;;;;;;6.87;47.02;101658.52;124889;1102;104245;-81
2022/03/16 12:56:19;;;;;;;18.87;7.37;;;;;;;6.85;46.33;101663.64;124837;1099;103015;-80
2022/03/16 13:03:43;;;;;;;19.57;7.07;;;;;;;6.75;46.30;101653.38;125729;1096;103089;-83
2022/03/16 13:07:18;;;;;;;17.97;6.20;;;;;;;6.71;45.11;101654.84;123965;1102;104507;-81
2022/03/16 13:10:25;;;;;;;15.93;6.33;;;;;;;6.64;45.24;101652.62;124498;1105;104234;-83
2022/03/16 13:13:30;;;;;;;20.00;6.40;;;;;;;6.61;45.55;101653.31;124877;1105;104444;-85
2022/03/16 13:16:37;;;;;;;17.03;6.03;;;;;;;6.62;45.09;101648.98;123884;1105;104524;-82
2022/03/16 13:19:31;;;;;;;15.53;6.27;;;;;;;6.55;44.46;101654.59;124153;1105;107672;-84
2022/03/16 13:22:17;;;;;;;17.03;6.60;;;;;;;6.39;43.65;101663.00;123879;1106;104738;-81
2022/03/16 13:24:57;;;;;;;19.90;5.90;;;;;;;6.29;42.86;101670.20;123665;1105;104440;-81
2022/03/16 13:27:35;;;;;;;14.57;5.90;;;;;;;6.14;43.40;101658.67;123806;1105;104237;-81
2022/03/16 13:30:21;;;;;;;16.07;5.90;;;;;;;6.06;43.31;101647.70;123277;1105;104412;-80
2022/03/16 13:32:58;;;;;;;13.93;5.60;;;;;;;6.10;42.91;101662.73;123519;1105;104409;-81
2022/03/16 13:35:57;;;;;;;13.37;5.70;;;;;;;6.09;42.80;101658.34;123356;1106;104517;-82
2022/03/16 13:38:51;;;;;;;12.33;5.10;;;;;;;6.07;43.54;101651.20;123159;1105;104489;-82
2022/03/16 13:42:04;;;;;;;13.87;5.70;;;;;;;6.02;43.55;101657.78;123722;1105;104287;-81